Mauston, WI

4:49 PM CST on November 24, 2014 (GMT -0600)
Sparta-Fort McCoy | Change Station
CLOSE
Current Station
Airport
Location: Sparta,
Elevation: 837 ft
Nearby Weather Stations
Active Advisory: Winter Weather Advisory Active Notice: Public Information Statement

Elev 837 ft 43.96 °N, 90.74 °W | Updated 14 minutes ago

Snow
Snow
24 °F
Feels Like 14 °F
N
12
Wind Variable Wind from West

Today
High -- | Low -- °F
--% Chance of Precip.
Yesterday
High -- | Low -- °F
Precip. -- in
7:06 AM 4:27 PM
Waxing Crescent, 7% visible
Pressure 29.53 in
Visibility 1.5 miles
Clouds Mostly Cloudy 200 ft
Windchill 14 °F
Dew Point 23 °F
Humidity 96%
Rainfall 0.10 in
Snow Depth Not available.
UV 0 out of 12
Pollen .10 out of 12
Air Quality Not available.
Flu Activity Not available.
METAR KCMY 242235Z AUTO 27010KT 1 1/2SM -SN BKN002 M04/M05 A2953 RMK AO2 T10421048

More Conditions Fewer Conditions

Pressure 29.53 in
Visibility 1.5 miles
Clouds Mostly Cloudy 200 ft
Windchill 14 °F
Dew Point 23 °F
Humidity 96%
Rainfall 0.10 in
Snow Depth Not available.
UV 0 out of 12
Pollen .10 out of 12
Air Quality Not available.
Flu Activity Not available.
METAR KCMY 242235Z AUTO 27010KT 1 1/2SM -SN BKN002 M04/M05 A2953 RMK AO2 T10421048

More Conditions Fewer Conditions

10-Day Weather Forecast

Almanac

Astronomy

Nov. 24, 2014 Rise Set
Actual Time
Civil Twilight
Nautical Twilight
Astronomical Twilight
Moon
Length of Visible Light
Length of Day
Tomorrow will be .
, % of the Moon is Illuminated

Today's Extremes

State Highs State Lows

Community

WunderPhotos

Upload Photos

1,773,427 photos uploaded!

WunderBlogs® & News

Nearby

Air Quality

  Air Quality AQ Index Pollutant
Not available.

Snow Depth

Station Depth Elevation

Earthquake Activity

City Distance Mag. Time & Date
Minimum magnitude displayed is 2.5.

Coastal Water Temperatures

Place Temperature

Nearby Weather Stations